Terminal Aerodrome Forecast
Issued by NWS Corpus Christi, TX

Home | Current Version | Previous Version | Text Only | Print | Product List | Glossary On
Versions: 1 2 3 4 5 6 7 8 9 10 11 12 13 14
000
FTUS44 KCRP 300500
TAFVCT
TAF
KVCT 300529Z 3006/3106 18003KT P6SM BKN250
     FM301000 VRB03KT 5SM BR FEW012 SCT250
      TEMPO 3011/3013 3SM BR
     FM301400 VRB06KT P6SM SCT025
     FM302100 16015G22KT P6SM FEW050 SCT250
     FM310100 15010KT P6SM SCT250=

USA.gov is the U.S. government's official web portal to all federal, state and local government web resources and services.